createdAt,value
2022-11-29T00:01:09.223Z,3.7
2022-11-29T00:02:19.329Z,3.6
2022-11-29T00:03:29.461Z,3.7
2022-11-29T00:04:39.569Z,3.6
2022-11-29T00:05:49.678Z,3.6
2022-11-29T00:06:59.805Z,3.6
2022-11-29T00:08:09.931Z,3.6
2022-11-29T00:09:19.069Z,3.6
2022-11-29T00:10:28.208Z,3.6
2022-11-29T00:11:38.325Z,3.6
2022-11-29T00:12:47.459Z,3.6
2022-11-29T00:13:56.596Z,3.6
2022-11-29T00:15:06.711Z,3.6
2022-11-29T00:16:16.835Z,3.6
2022-11-29T00:17:26.960Z,3.6
2022-11-29T00:18:37.066Z,3.6
2022-11-29T00:19:47.188Z,3.6
2022-11-29T00:20:57.306Z,3.6
2022-11-29T00:22:07.427Z,3.6
2022-11-29T00:23:17.537Z,3.6
2022-11-29T00:24:27.664Z,3.6
2022-11-29T00:25:37.770Z,3.6
2022-11-29T00:26:47.908Z,3.6
2022-11-29T00:27:58.025Z,3.6
2022-11-29T00:29:07.148Z,3.6
2022-11-29T00:30:16.291Z,3.6
2022-11-29T00:31:26.413Z,3.6
2022-11-29T00:32:36.520Z,3.6
2022-11-29T00:33:46.643Z,3.6
2022-11-29T00:34:56.765Z,3.6
2022-11-29T00:36:06.874Z,3.6
2022-11-29T00:37:16.997Z,3.6
2022-11-29T00:38:27.123Z,3.6
2022-11-29T00:39:37.227Z,3.5
2022-11-29T00:40:47.356Z,3.5
2022-11-29T00:41:57.478Z,3.5
2022-11-29T00:44:17.704Z,3.5
2022-11-29T00:45:26.844Z,3.6
2022-11-29T00:46:36.950Z,3.5
2022-11-29T00:47:47.078Z,3.5
2022-11-29T00:48:57.199Z,3.5
2022-11-29T00:50:07.304Z,3.5
2022-11-29T00:51:17.425Z,3.5
2022-11-29T00:52:27.552Z,3.5
2022-11-29T00:53:37.672Z,3.5
2022-11-29T00:54:47.782Z,3.5
2022-11-29T00:55:57.907Z,3.5
2022-11-29T00:58:18.150Z,3.5
2022-11-29T00:59:28.259Z,3.5
2022-11-29T01:00:37.385Z,3.5
2022-11-29T01:01:47.512Z,3.5
2022-11-29T01:02:57.631Z,3.4
2022-11-29T01:04:07.741Z,3.5
2022-11-29T01:05:17.869Z,3.5
2022-11-29T01:06:27.976Z,3.4
2022-11-29T01:07:38.104Z,3.5
2022-11-29T01:08:48.211Z,3.5
2022-11-29T01:09:58.331Z,3.5
2022-11-29T01:12:18.572Z,3.4
2022-11-29T01:13:28.702Z,3.4
2022-11-29T01:14:38.807Z,3.4
2022-11-29T01:15:47.947Z,3.4
2022-11-29T01:16:58.057Z,3.4
2022-11-29T01:18:08.175Z,3.4
2022-11-29T01:19:18.303Z,3.4
2022-11-29T01:20:28.411Z,3.4
2022-11-29T01:21:38.541Z,3.4
2022-11-29T01:22:48.660Z,3.4
2022-11-29T01:23:58.768Z,3.4
2022-11-29T01:26:19.000Z,3.4
2022-11-29T01:27:29.134Z,3.4
2022-11-29T01:28:39.236Z,3.4
2022-11-29T01:29:49.360Z,3.4
2022-11-29T01:30:58.492Z,3.4
2022-11-29T01:32:08.620Z,3.4
2022-11-29T01:33:18.728Z,3.4
2022-11-29T01:34:28.847Z,3.4
2022-11-29T01:35:38.968Z,3.4
2022-11-29T01:36:49.094Z,3.4
2022-11-29T01:37:59.205Z,3.4
2022-11-29T01:39:09.324Z,3.4
2022-11-29T01:40:19.447Z,3.4
2022-11-29T01:41:29.555Z,3.4
2022-11-29T01:42:39.678Z,3.3
2022-11-29T01:43:49.804Z,3.4
2022-11-29T01:44:59.910Z,3.4
2022-11-29T01:46:09.048Z,3.4
2022-11-29T01:47:19.177Z,3.3
2022-11-29T01:48:29.287Z,3.3
2022-11-29T01:49:39.415Z,3.4
2022-11-29T01:50:49.520Z,3.4
2022-11-29T01:51:59.642Z,3.4
2022-11-29T01:53:09.768Z,3.3
2022-11-29T01:54:19.871Z,3.4
2022-11-29T01:55:29.995Z,3.3
2022-11-29T01:56:40.116Z,3.4
2022-11-29T01:57:50.223Z,3.3
2022-11-29T01:59:00.351Z,3.3
2022-11-29T02:00:10.476Z,3.3
2022-11-29T02:01:19.596Z,3.3
2022-11-29T02:02:29.716Z,3.3
2022-11-29T02:03:39.841Z,3.3
2022-11-29T02:04:49.962Z,3.3
2022-11-29T02:06:00.069Z,3.3
2022-11-29T02:08:20.322Z,3.4
2022-11-29T02:09:29.452Z,3.4
2022-11-29T02:10:38.590Z,3.4
2022-11-29T02:11:48.708Z,3.4
2022-11-29T02:12:58.826Z,3.4
2022-11-29T02:15:19.068Z,3.4
2022-11-29T02:16:29.173Z,3.3
2022-11-29T02:17:39.302Z,3.3
2022-11-29T02:18:49.426Z,3.3
2022-11-29T02:19:59.532Z,3.3
2022-11-29T02:21:09.646Z,3.3
2022-11-29T02:22:19.767Z,3.4
2022-11-29T02:23:29.881Z,3.4
2022-11-29T02:24:40.005Z,3.4
2022-11-29T02:25:49.148Z,3.4
2022-11-29T02:26:59.253Z,3.3
2022-11-29T02:28:09.381Z,3.4
2022-11-29T02:29:19.490Z,3.4
2022-11-29T02:30:29.610Z,3.4
2022-11-29T02:31:39.735Z,3.4
2022-11-29T02:32:49.853Z,3.4
2022-11-29T02:33:59.974Z,3.4
2022-11-29T02:35:09.105Z,3.4
2022-11-29T02:36:18.246Z,3.4
2022-11-29T02:37:27.398Z,3.4
2022-11-29T02:38:36.534Z,3.4
2022-11-29T02:39:46.652Z,3.4
2022-11-29T02:40:56.772Z,3.4
2022-11-29T02:43:17.004Z,3.4
2022-11-29T02:44:27.110Z,3.4
2022-11-29T02:45:37.230Z,3.3
2022-11-29T02:46:47.354Z,3.3
2022-11-29T02:47:57.479Z,3.4
2022-11-29T02:49:07.582Z,3.4
2022-11-29T02:50:17.707Z,3.4
2022-11-29T02:51:27.834Z,3.4
2022-11-29T02:52:37.945Z,3.4
2022-11-29T02:53:47.073Z,3.4
2022-11-29T02:54:57.190Z,3.4
2022-11-29T02:56:07.317Z,3.4
2022-11-29T02:57:17.435Z,3.4
2022-11-29T02:58:27.544Z,3.4
2022-11-29T02:59:37.667Z,3.4
2022-11-29T03:00:47.792Z,3.4
2022-11-29T03:01:57.908Z,3.4
2022-11-29T03:03:08.022Z,3.3
2022-11-29T03:04:18.150Z,3.3
2022-11-29T03:05:28.260Z,3.3
2022-11-29T03:06:38.388Z,3.3
2022-11-29T03:07:48.492Z,3.3
2022-11-29T03:08:57.632Z,3.4
2022-11-29T03:10:07.754Z,3.3
2022-11-29T03:11:17.867Z,3.3
2022-11-29T03:12:27.977Z,3.3
2022-11-29T03:13:38.102Z,3.4
2022-11-29T03:14:48.226Z,3.4
2022-11-29T03:15:58.332Z,3.4
2022-11-29T03:17:08.458Z,3.4
2022-11-29T03:18:18.567Z,3.4
2022-11-29T03:19:28.703Z,3.3
2022-11-29T03:21:48.926Z,3.4
2022-11-29T03:22:59.049Z,3.4
2022-11-29T03:24:09.290Z,3.4
2022-11-29T03:25:19.398Z,3.4
2022-11-29T03:26:29.515Z,3.3
2022-11-29T03:27:39.645Z,3.3
2022-11-29T03:28:49.767Z,3.4
2022-11-29T03:29:59.872Z,3.3
2022-11-29T03:31:10.004Z,3.4
2022-11-29T03:32:20.108Z,3.3
2022-11-29T03:33:30.232Z,3.3
2022-11-29T03:34:40.354Z,3.3
2022-11-29T03:35:50.479Z,3.3
2022-11-29T03:37:00.587Z,3.3
2022-11-29T03:38:10.714Z,3.3
2022-11-29T03:39:19.833Z,3.3
2022-11-29T03:40:29.954Z,3.3
2022-11-29T03:41:40.068Z,3.3
2022-11-29T03:42:50.191Z,3.3
2022-11-29T03:44:00.317Z,3.3
2022-11-29T03:45:10.436Z,3.3
2022-11-29T03:46:20.546Z,3.3
2022-11-29T03:47:30.672Z,3.3
2022-11-29T03:48:40.774Z,3.3
2022-11-29T03:49:50.893Z,3.2
2022-11-29T03:51:01.021Z,3.2
2022-11-29T03:52:11.141Z,3.2
2022-11-29T03:53:21.247Z,3.2
2022-11-29T03:54:30.389Z,3.3
2022-11-29T03:55:40.500Z,3.3
2022-11-29T03:56:50.623Z,3.2
2022-11-29T03:58:00.754Z,3.2
2022-11-29T03:59:10.863Z,3.3
2022-11-29T04:00:20.984Z,3.3
2022-11-29T04:01:31.094Z,3.3
2022-11-29T04:02:41.221Z,3.3
2022-11-29T04:03:51.337Z,3.3
2022-11-29T04:05:01.458Z,3.3
2022-11-29T04:06:11.564Z,3.3
2022-11-29T04:07:21.688Z,3.3
2022-11-29T04:08:31.809Z,3.3
2022-11-29T04:09:40.941Z,3.4
2022-11-29T04:10:51.065Z,3.3
2022-11-29T04:12:01.189Z,3.3
2022-11-29T04:13:11.293Z,3.3
2022-11-29T04:14:21.411Z,3.3
2022-11-29T04:15:31.531Z,3.3
2022-11-29T04:16:41.657Z,3.3
2022-11-29T04:17:51.765Z,3.3
2022-11-29T04:19:01.890Z,3.4
2022-11-29T04:20:12.015Z,3.4
2022-11-29T04:21:22.126Z,3.3
2022-11-29T04:22:32.244Z,3.4
2022-11-29T04:23:42.369Z,3.4
2022-11-29T04:24:51.509Z,3.4
2022-11-29T04:26:01.613Z,3.3
2022-11-29T04:27:11.744Z,3.4
2022-11-29T04:28:21.854Z,3.4
2022-11-29T04:29:31.982Z,3.4
2022-11-29T04:30:42.088Z,3.4
2022-11-29T04:31:52.217Z,3.4
2022-11-29T04:33:02.319Z,3.4
2022-11-29T04:34:12.446Z,3.3
2022-11-29T04:35:22.568Z,3.3
2022-11-29T04:36:32.676Z,3.3
2022-11-29T04:37:42.805Z,3.3
2022-11-29T04:38:52.927Z,3.3
2022-11-29T04:40:02.059Z,3.3
2022-11-29T04:41:12.166Z,3.4
2022-11-29T04:42:22.291Z,3.3
2022-11-29T04:43:32.405Z,3.3
2022-11-29T04:44:42.527Z,3.3
2022-11-29T04:45:52.645Z,3.3
2022-11-29T04:47:02.755Z,3.3
2022-11-29T04:48:12.884Z,3.4
2022-11-29T04:49:22.992Z,3.4
2022-11-29T04:50:33.115Z,3.4
2022-11-29T04:51:43.240Z,3.4
2022-11-29T04:52:53.344Z,3.3
2022-11-29T04:54:03.466Z,3.4
2022-11-29T04:55:12.596Z,3.4
2022-11-29T04:56:21.754Z,3.3
2022-11-29T04:57:30.891Z,3.3
2022-11-29T04:58:41.009Z,3.4
2022-11-29T04:59:51.112Z,3.4
2022-11-29T05:01:00.273Z,3.4
2022-11-29T05:02:10.501Z,3.3
2022-11-29T05:03:20.622Z,3.3
2022-11-29T05:04:30.749Z,3.3
2022-11-29T05:05:40.865Z,3.4
2022-11-29T05:06:50.977Z,3.3
2022-11-29T05:08:01.101Z,3.4
2022-11-29T05:09:11.210Z,3.4
2022-11-29T05:10:21.334Z,3.3
2022-11-29T05:11:31.457Z,3.4
2022-11-29T05:12:41.556Z,3.3
2022-11-29T05:13:51.690Z,3.3
2022-11-29T05:15:01.799Z,3.4
2022-11-29T05:17:22.033Z,3.4
2022-11-29T05:18:31.170Z,3.4
2022-11-29T05:19:41.288Z,3.4
2022-11-29T05:20:51.417Z,3.4
2022-11-29T05:22:01.520Z,3.4
2022-11-29T05:23:11.646Z,3.4
2022-11-29T05:24:21.767Z,3.4
2022-11-29T05:25:31.000Z,3.4
2022-11-29T05:26:42.000Z,3.4
2022-11-29T05:27:52.118Z,3.4
2022-11-29T05:29:02.242Z,3.4
2022-11-29T05:30:12.346Z,3.4
2022-11-29T05:31:22.475Z,3.4
2022-11-29T05:32:32.587Z,3.4
2022-11-29T05:33:42.833Z,3.4
2022-11-29T05:34:52.940Z,3.4
2022-11-29T05:36:03.073Z,3.4
2022-11-29T05:37:13.176Z,3.5
2022-11-29T05:38:23.301Z,3.4
2022-11-29T05:39:33.419Z,3.4
2022-11-29T05:40:43.532Z,3.5
2022-11-29T05:41:53.648Z,3.4
2022-11-29T05:43:03.779Z,3.4
2022-11-29T05:44:13.901Z,3.4
2022-11-29T05:45:24.006Z,3.4
2022-11-29T05:46:34.136Z,3.4
2022-11-29T05:47:44.255Z,3.4
2022-11-29T05:48:53.385Z,3.4
2022-11-29T05:50:03.507Z,3.4
2022-11-29T05:52:23.741Z,3.5
2022-11-29T05:53:33.846Z,3.5
2022-11-29T05:54:43.974Z,3.5
2022-11-29T05:55:54.089Z,3.5
2022-11-29T05:57:04.199Z,3.4
2022-11-29T05:58:14.318Z,3.4
2022-11-29T05:59:24.443Z,3.4
2022-11-29T06:00:34.568Z,3.5
2022-11-29T06:01:44.674Z,3.4
2022-11-29T06:02:54.804Z,3.5
2022-11-29T06:04:03.925Z,3.4
2022-11-29T06:05:14.051Z,3.5
2022-11-29T06:06:24.174Z,3.5
2022-11-29T06:07:34.289Z,3.5
2022-11-29T06:08:44.410Z,3.5
2022-11-29T06:09:54.518Z,3.5
2022-11-29T06:11:04.642Z,3.5
2022-11-29T06:12:14.767Z,3.5
2022-11-29T06:13:24.886Z,3.5
2022-11-29T06:14:34.986Z,3.5
2022-11-29T06:15:45.115Z,3.5
2022-11-29T06:16:55.241Z,3.5
2022-11-29T06:18:05.348Z,3.4
2022-11-29T06:19:15.581Z,3.5
2022-11-29T06:21:35.830Z,3.5
2022-11-29T06:22:45.951Z,3.5
2022-11-29T06:23:56.060Z,3.5
2022-11-29T06:25:06.170Z,3.5
2022-11-29T06:26:16.292Z,3.4
2022-11-29T06:27:26.409Z,3.5
2022-11-29T06:28:36.540Z,3.5
2022-11-29T06:29:46.652Z,3.5
2022-11-29T06:30:56.777Z,3.5
2022-11-29T06:32:06.889Z,3.5
2022-11-29T06:34:27.121Z,3.5
2022-11-29T06:35:36.254Z,3.5
2022-11-29T06:36:46.381Z,3.5
2022-11-29T06:37:56.492Z,3.5
2022-11-29T06:39:06.622Z,3.5
2022-11-29T06:40:16.728Z,3.5
2022-11-29T06:41:26.858Z,3.5
2022-11-29T06:42:36.966Z,3.5
2022-11-29T06:43:47.090Z,3.5
2022-11-29T06:44:57.196Z,3.4
2022-11-29T06:46:07.327Z,3.5
2022-11-29T06:47:17.435Z,3.5
2022-11-29T06:48:27.563Z,3.5
2022-11-29T06:49:37.685Z,3.5
2022-11-29T06:50:46.802Z,3.5
2022-11-29T06:51:56.932Z,3.5
2022-11-29T06:53:07.056Z,3.6
2022-11-29T06:54:17.163Z,3.5
2022-11-29T06:55:27.288Z,3.6
2022-11-29T06:56:37.396Z,3.5
2022-11-29T06:57:47.509Z,3.5
2022-11-29T06:58:57.627Z,3.5
2022-11-29T07:00:07.755Z,3.5
2022-11-29T07:01:17.871Z,3.5
2022-11-29T07:02:27.996Z,3.5
2022-11-29T07:03:38.108Z,3.5
2022-11-29T07:04:48.236Z,3.5
2022-11-29T07:05:57.352Z,3.6
2022-11-29T07:07:07.479Z,3.6
2022-11-29T07:08:17.590Z,3.6
2022-11-29T07:09:27.708Z,3.5
2022-11-29T07:10:37.830Z,3.6
2022-11-29T07:11:47.949Z,3.5
2022-11-29T07:12:58.061Z,3.5
2022-11-29T07:14:08.194Z,3.5
2022-11-29T07:15:18.316Z,3.5
2022-11-29T07:16:28.433Z,3.5
2022-11-29T07:17:38.537Z,3.6
2022-11-29T07:18:48.669Z,3.6
2022-11-29T07:19:58.773Z,3.6
2022-11-29T07:21:09.027Z,3.5
2022-11-29T07:22:19.126Z,3.6
2022-11-29T07:23:29.255Z,3.6
2022-11-29T07:24:39.363Z,3.6
2022-11-29T07:25:49.492Z,3.6
2022-11-29T07:26:58.636Z,3.6
2022-11-29T07:28:07.762Z,3.6
2022-11-29T07:29:17.889Z,3.6
2022-11-29T07:30:27.997Z,3.6
2022-11-29T07:31:38.120Z,3.7
2022-11-29T07:32:48.233Z,3.6
2022-11-29T07:33:58.354Z,3.7
2022-11-29T07:35:07.508Z,3.6
2022-11-29T07:36:16.642Z,3.6
2022-11-29T07:38:36.879Z,3.6
2022-11-29T07:39:46.989Z,3.6
2022-11-29T07:40:57.112Z,3.6
2022-11-29T07:42:07.235Z,3.6
2022-11-29T07:43:17.000Z,3.7
2022-11-29T07:44:27.456Z,3.7
2022-11-29T07:45:37.577Z,3.6
2022-11-29T07:46:47.703Z,3.7
2022-11-29T07:47:57.812Z,3.8
2022-11-29T07:49:07.943Z,3.8
2022-11-29T07:50:18.048Z,3.8
2022-11-29T07:51:27.182Z,3.8
2022-11-29T07:52:37.308Z,3.8
2022-11-29T07:53:47.433Z,3.8
2022-11-29T07:54:57.538Z,3.8
2022-11-29T07:56:07.666Z,3.7
2022-11-29T07:58:27.904Z,3.7
2022-11-29T07:59:36.972Z,3.7
2022-11-29T08:00:46.184Z,3.7
2022-11-29T08:01:56.286Z,3.7
2022-11-29T08:03:06.408Z,3.8
2022-11-29T08:05:26.640Z,3.7
2022-11-29T08:06:36.767Z,3.8
2022-11-29T08:07:46.890Z,3.8
2022-11-29T08:08:56.998Z,3.8
2022-11-29T08:10:07.128Z,3.8
2022-11-29T08:11:17.237Z,3.8
2022-11-29T08:12:27.363Z,3.9
2022-11-29T08:13:37.484Z,3.9
2022-11-29T08:14:47.585Z,3.9
2022-11-29T08:15:56.719Z,3.8
2022-11-29T08:17:06.849Z,3.8
2022-11-29T08:18:16.971Z,3.9
2022-11-29T08:19:26.103Z,3.9
2022-11-29T08:20:36.215Z,3.9
2022-11-29T08:21:46.351Z,3.9
2022-11-29T08:22:56.451Z,3.8
2022-11-29T08:24:06.574Z,3.8
2022-11-29T08:25:15.720Z,3.9
2022-11-29T08:26:24.851Z,3.9
2022-11-29T08:27:34.982Z,3.9
2022-11-29T08:28:45.099Z,3.9
2022-11-29T08:29:55.220Z,4
2022-11-29T08:31:05.329Z,4
2022-11-29T08:32:15.448Z,4
2022-11-29T08:33:25.555Z,4
2022-11-29T08:34:35.673Z,4
2022-11-29T08:35:45.792Z,3.9
2022-11-29T08:36:55.918Z,3.9
2022-11-29T08:38:06.044Z,3.9
2022-11-29T08:39:16.148Z,4
2022-11-29T08:40:26.267Z,3.9
2022-11-29T08:41:36.511Z,3.9
2022-11-29T08:42:46.639Z,3.9
2022-11-29T08:43:56.743Z,3.9
2022-11-29T08:45:06.868Z,3.9
2022-11-29T08:46:16.992Z,3.8
2022-11-29T08:47:27.096Z,3.8
2022-11-29T08:48:37.222Z,3.8
2022-11-29T08:49:47.342Z,3.8
2022-11-29T08:50:57.446Z,3.8
2022-11-29T08:52:07.567Z,3.8
2022-11-29T08:53:17.694Z,3.8
2022-11-29T08:54:27.803Z,3.8
2022-11-29T08:55:37.933Z,3.8
2022-11-29T08:56:47.000Z,3.8
2022-11-29T08:57:57.185Z,3.8
2022-11-29T08:59:07.307Z,3.8
2022-11-29T09:00:17.414Z,3.8
2022-11-29T09:01:27.543Z,3.8
2022-11-29T09:02:37.648Z,3.8
2022-11-29T09:03:47.778Z,3.8
2022-11-29T09:04:57.882Z,3.9
2022-11-29T09:06:08.005Z,3.9
2022-11-29T09:07:18.134Z,3.9
2022-11-29T09:13:08.684Z,3.9
2022-11-29T09:14:17.843Z,3.9
2022-11-29T09:15:28.070Z,3.9
2022-11-29T09:22:28.780Z,4
2022-11-29T09:23:38.898Z,4
2022-11-29T09:24:49.026Z,4
2022-11-29T09:25:59.144Z,4
2022-11-29T09:27:09.254Z,4
2022-11-29T09:29:29.495Z,4.1
2022-11-29T09:30:38.628Z,4.1
2022-11-29T09:31:48.755Z,4.1
2022-11-29T09:32:58.859Z,4.1
2022-11-29T09:34:08.019Z,4.1
2022-11-29T09:35:17.138Z,4.1
2022-11-29T09:36:27.259Z,4.1
2022-11-29T09:37:37.382Z,4.1
2022-11-29T09:38:47.501Z,4.1
2022-11-29T09:39:57.620Z,4.1
2022-11-29T09:41:07.728Z,4.1
2022-11-29T09:42:17.853Z,4.2
2022-11-29T09:43:27.973Z,4.1
2022-11-29T09:44:38.093Z,4.1
2022-11-29T09:45:48.214Z,4
2022-11-29T09:46:57.361Z,4.1
2022-11-29T09:51:36.845Z,4
2022-11-29T09:52:46.948Z,4.1
2022-11-29T09:53:57.072Z,4.1
2022-11-29T09:55:07.192Z,4.1
2022-11-29T09:56:17.310Z,4
2022-11-29T09:57:27.433Z,4
2022-11-29T09:58:37.551Z,4
2022-11-29T09:59:47.655Z,3.9
2022-11-29T10:00:57.771Z,4
2022-11-29T10:02:07.899Z,4
2022-11-29T10:03:18.165Z,4.1
2022-11-29T10:04:27.299Z,4.1
2022-11-29T10:05:37.425Z,4.1
2022-11-29T10:06:47.531Z,4.2
2022-11-29T10:07:57.659Z,4.2
2022-11-29T10:09:07.766Z,4.2
2022-11-29T10:10:17.895Z,4.2
2022-11-29T10:11:28.003Z,4.2
2022-11-29T10:12:38.130Z,4.3
2022-11-29T10:13:48.246Z,4.3
2022-11-29T10:16:08.476Z,4.3
2022-11-29T10:17:18.588Z,4.4
2022-11-29T10:18:28.715Z,4.4
2022-11-29T10:19:37.856Z,4.4
2022-11-29T10:20:47.962Z,4.4
2022-11-29T10:21:58.076Z,4.4
2022-11-29T10:23:08.203Z,4.4
2022-11-29T10:24:18.317Z,4.4
2022-11-29T10:25:28.443Z,4.4
2022-11-29T10:26:38.567Z,4.4
2022-11-29T10:27:48.673Z,4.3
2022-11-29T10:28:58.799Z,4.3
2022-11-29T10:30:08.902Z,4.3
2022-11-29T10:31:19.036Z,4.3
2022-11-29T10:32:29.143Z,4.3
2022-11-29T10:33:39.270Z,4.3
2022-11-29T10:34:48.409Z,4.4
2022-11-29T10:37:08.645Z,4.4
2022-11-29T10:38:18.755Z,4.4
2022-11-29T10:39:28.877Z,4.5
2022-11-29T10:40:38.982Z,4.5
2022-11-29T10:41:49.113Z,4.4
2022-11-29T10:42:59.216Z,4.5
2022-11-29T10:44:09.349Z,4.5
2022-11-29T10:45:19.456Z,4.5
2022-11-29T10:46:29.578Z,4.5
2022-11-29T10:47:39.707Z,4.5
2022-11-29T10:48:49.816Z,4.6
2022-11-29T10:49:58.959Z,4.6
2022-11-29T10:51:09.062Z,4.6
2022-11-29T10:52:19.190Z,4.7
2022-11-29T10:53:29.296Z,4.6
2022-11-29T10:54:39.424Z,4.5
2022-11-29T10:55:49.550Z,4.6
2022-11-29T10:56:59.656Z,4.7
2022-11-29T10:58:09.782Z,4.6
2022-11-29T10:59:19.885Z,4.6
2022-11-29T11:00:30.013Z,4.6
2022-11-29T11:01:40.127Z,4.7
2022-11-29T11:02:50.255Z,4.7
2022-11-29T11:04:00.361Z,4.7
2022-11-29T11:05:09.490Z,4.7
2022-11-29T11:06:19.620Z,4.7
2022-11-29T11:07:29.729Z,4.6
2022-11-29T11:08:39.851Z,4.6
2022-11-29T11:09:49.974Z,4.6
2022-11-29T11:11:00.080Z,4.7
2022-11-29T11:12:10.202Z,4.6
2022-11-29T11:13:20.327Z,4.6
2022-11-29T11:14:30.448Z,4.6
2022-11-29T11:15:40.556Z,4.6
2022-11-29T11:16:50.679Z,4.6
2022-11-29T11:18:00.797Z,4.6
2022-11-29T11:19:10.925Z,4.6
2022-11-29T11:20:20.049Z,4.6
2022-11-29T11:21:30.175Z,4.6
2022-11-29T11:22:40.278Z,4.6
2022-11-29T11:23:50.401Z,4.6
2022-11-29T11:25:00.521Z,4.6
2022-11-29T11:26:10.632Z,4.7
2022-11-29T11:27:20.762Z,4.8
2022-11-29T11:28:30.878Z,4.8
2022-11-29T11:29:40.987Z,4.8
2022-11-29T11:30:51.116Z,4.8
2022-11-29T11:32:01.239Z,4.9
2022-11-29T11:33:11.342Z,4.9
2022-11-29T11:34:21.472Z,4.8
2022-11-29T11:35:30.604Z,4.8
2022-11-29T11:36:40.718Z,4.8
2022-11-29T11:37:50.845Z,4.8
2022-11-29T11:39:00.953Z,4.8
2022-11-29T11:40:11.072Z,4.8
2022-11-29T11:41:21.186Z,4.8
2022-11-29T11:42:31.312Z,4.8
2022-11-29T11:43:41.421Z,4.8
2022-11-29T11:44:51.550Z,4.9
2022-11-29T11:46:01.654Z,4.9
2022-11-29T11:47:11.783Z,4.9
2022-11-29T11:48:21.894Z,4.9
2022-11-29T11:49:32.014Z,5
2022-11-29T11:50:41.144Z,5
2022-11-29T11:51:51.277Z,5
2022-11-29T11:53:01.380Z,5
2022-11-29T11:54:11.504Z,4.9
2022-11-29T11:55:21.631Z,4.9
2022-11-29T11:56:31.741Z,4.8
2022-11-29T11:57:41.868Z,4.8
2022-11-29T11:58:51.988Z,4.8
2022-11-29T12:00:02.090Z,4.8
2022-11-29T12:01:12.219Z,4.8
2022-11-29T12:03:32.449Z,4.9
2022-11-29T12:04:42.568Z,4.9
2022-11-29T12:05:51.698Z,4.9
2022-11-29T12:07:01.818Z,5
2022-11-29T12:08:11.948Z,5
2022-11-29T12:09:22.048Z,5.1
2022-11-29T12:10:32.171Z,5.1
2022-11-29T12:11:42.290Z,5
2022-11-29T12:12:52.420Z,4.9
2022-11-29T12:14:02.663Z,4.9
2022-11-29T12:15:12.780Z,4.9
2022-11-29T12:16:22.883Z,4.9
2022-11-29T12:17:33.005Z,5
2022-11-29T12:18:43.121Z,5
2022-11-29T12:19:53.246Z,5
2022-11-29T12:21:03.357Z,5
2022-11-29T12:22:13.489Z,4.9
2022-11-29T12:23:23.593Z,5
2022-11-29T12:24:33.721Z,5
2022-11-29T12:25:43.828Z,4.9
2022-11-29T12:26:53.954Z,5
2022-11-29T12:28:04.062Z,5
2022-11-29T12:29:14.311Z,5
2022-11-29T12:30:24.431Z,5
2022-11-29T12:31:34.540Z,5
2022-11-29T12:32:44.669Z,5
2022-11-29T12:33:54.792Z,5
2022-11-29T12:35:04.900Z,5
2022-11-29T12:36:15.025Z,5
2022-11-29T12:38:35.259Z,5
2022-11-29T12:39:45.365Z,5
2022-11-29T12:40:55.493Z,5
2022-11-29T12:42:05.617Z,5
2022-11-29T12:43:15.725Z,5.1
2022-11-29T12:44:24.867Z,5.1
2022-11-29T12:45:34.972Z,5
2022-11-29T12:46:45.099Z,4.9
2022-11-29T12:47:55.224Z,4.9
2022-11-29T12:49:05.329Z,4.9
2022-11-29T12:50:15.458Z,4.9
2022-11-29T12:51:25.567Z,4.9
2022-11-29T12:52:35.693Z,5
2022-11-29T12:53:45.804Z,4.9
2022-11-29T12:54:55.927Z,4.8
2022-11-29T12:56:06.042Z,4.8
2022-11-29T12:57:16.150Z,4.8
2022-11-29T12:58:26.280Z,4.8
2022-11-29T12:59:35.412Z,4.8
2022-11-29T13:00:45.539Z,4.9
2022-11-29T13:01:55.646Z,4.9
2022-11-29T13:03:05.772Z,4.9
2022-11-29T13:04:15.879Z,4.8
2022-11-29T13:05:25.996Z,4.8
2022-11-29T13:06:36.120Z,4.9
2022-11-29T13:07:46.243Z,4.9
2022-11-29T13:08:56.349Z,4.8
2022-11-29T13:10:06.480Z,4.8
2022-11-29T13:11:16.589Z,4.8
2022-11-29T13:12:26.716Z,4.8
2022-11-29T13:13:36.824Z,4.8
2022-11-29T13:14:45.969Z,4.8
2022-11-29T13:15:56.074Z,4.7
2022-11-29T13:17:06.207Z,4.7
2022-11-29T13:18:16.322Z,4.7
2022-11-29T13:19:26.431Z,4.6
2022-11-29T13:20:36.560Z,4.7
2022-11-29T13:21:46.681Z,4.7
2022-11-29T13:22:56.782Z,4.7
2022-11-29T13:24:06.902Z,4.8
2022-11-29T13:25:17.018Z,4.8
2022-11-29T13:26:27.145Z,4.8
2022-11-29T13:27:37.254Z,4.7
2022-11-29T13:28:47.387Z,4.7
2022-11-29T13:29:56.511Z,4.7
2022-11-29T13:31:06.629Z,4.7
2022-11-29T13:32:16.756Z,4.7
2022-11-29T13:33:26.860Z,4.7
2022-11-29T13:34:36.978Z,4.7
2022-11-29T13:35:47.102Z,4.6
2022-11-29T13:36:57.214Z,4.6
2022-11-29T13:38:07.343Z,4.7
2022-11-29T13:39:17.447Z,4.6
2022-11-29T13:40:27.576Z,4.7
2022-11-29T13:42:47.817Z,4.6
2022-11-29T13:43:57.924Z,4.6
2022-11-29T13:45:07.055Z,4.6
2022-11-29T13:46:17.180Z,4.6
2022-11-29T13:47:27.309Z,4.7
2022-11-29T13:48:37.408Z,4.7
2022-11-29T13:49:47.529Z,4.6
2022-11-29T13:50:57.650Z,4.6
2022-11-29T13:52:07.762Z,4.6
2022-11-29T13:53:17.890Z,4.7
2022-11-29T13:54:28.016Z,4.6
2022-11-29T13:55:38.125Z,4.6
2022-11-29T13:56:48.247Z,4.6
2022-11-29T13:57:58.356Z,4.6
2022-11-29T13:59:08.478Z,4.6
2022-11-29T14:00:17.618Z,4.6
2022-11-29T14:01:27.741Z,4.5
2022-11-29T14:02:37.859Z,4.6
2022-11-29T14:03:47.966Z,4.5
2022-11-29T14:04:58.088Z,4.5
2022-11-29T14:06:08.210Z,4.6
2022-11-29T14:07:18.317Z,4.6
2022-11-29T14:08:28.443Z,4.6
2022-11-29T14:09:38.553Z,4.6
2022-11-29T14:10:48.675Z,4.6
2022-11-29T14:11:58.805Z,4.6
2022-11-29T14:14:19.030Z,4.6
2022-11-29T14:15:28.185Z,4.5
2022-11-29T14:16:37.317Z,4.5
2022-11-29T14:17:46.459Z,4.5
2022-11-29T14:18:55.591Z,4.5
2022-11-29T14:20:05.703Z,4.6
2022-11-29T14:21:15.831Z,4.6
2022-11-29T14:22:25.934Z,4.5
2022-11-29T14:23:36.063Z,4.5
2022-11-29T14:24:46.170Z,4.5
2022-11-29T14:25:56.292Z,4.5
2022-11-29T14:27:06.418Z,4.5
2022-11-29T14:28:16.525Z,4.4
2022-11-29T14:29:26.657Z,4.5
2022-11-29T14:30:36.778Z,4.5
2022-11-29T14:31:46.882Z,4.5
2022-11-29T14:32:57.011Z,4.5
2022-11-29T14:34:06.131Z,4.5
2022-11-29T14:35:16.258Z,4.5
2022-11-29T14:36:26.367Z,4.5
2022-11-29T14:37:36.494Z,4.5
2022-11-29T14:38:46.602Z,4.5
2022-11-29T14:39:56.730Z,4.5
2022-11-29T14:41:06.855Z,4.5
2022-11-29T14:42:17.103Z,4.5
2022-11-29T14:43:26.254Z,4.5
2022-11-29T14:44:36.371Z,4.4
2022-11-29T14:45:45.510Z,4.4
2022-11-29T14:46:54.644Z,4.5
2022-11-29T14:48:04.755Z,4.4
2022-11-29T14:49:14.883Z,4.4
2022-11-29T14:51:35.121Z,4.4
2022-11-29T14:52:45.224Z,4.5
2022-11-29T14:53:55.359Z,4.5
2022-11-29T14:55:05.467Z,4.5
2022-11-29T14:56:15.591Z,4.4
2022-11-29T14:57:25.713Z,4.4
2022-11-29T14:58:35.824Z,4.4
2022-11-29T14:59:45.948Z,4.4
2022-11-29T15:00:56.060Z,4.4
2022-11-29T15:02:06.296Z,4.4
2022-11-29T15:03:16.424Z,4.4
2022-11-29T15:04:26.534Z,4.4
2022-11-29T15:05:36.656Z,4.4
2022-11-29T15:06:46.763Z,4.4
2022-11-29T15:07:56.890Z,4.4
2022-11-29T15:09:07.015Z,4.4
2022-11-29T15:10:17.132Z,4.4
2022-11-29T15:11:27.240Z,4.3
2022-11-29T15:12:37.365Z,4.3
2022-11-29T15:13:47.473Z,4.3
2022-11-29T15:14:57.592Z,4.4
2022-11-29T15:16:07.720Z,4.4
2022-11-29T15:17:16.845Z,4.4
2022-11-29T15:18:26.977Z,4.4
2022-11-29T15:19:37.088Z,4.3
2022-11-29T15:20:47.205Z,4.3
2022-11-29T15:21:57.321Z,4.3
2022-11-29T15:23:07.446Z,4.3
2022-11-29T15:24:17.554Z,4.3
2022-11-29T15:25:27.681Z,4.3
2022-11-29T15:26:37.788Z,4.3
2022-11-29T15:27:47.908Z,4.3
2022-11-29T15:28:58.034Z,4.3
2022-11-29T15:30:08.141Z,4.2
2022-11-29T15:31:18.273Z,4.2
2022-11-29T15:32:27.409Z,4.3
2022-11-29T15:33:37.516Z,4.3
2022-11-29T15:34:47.646Z,4.3
2022-11-29T15:35:57.748Z,4.2
2022-11-29T15:37:07.869Z,4.3
2022-11-29T15:38:17.995Z,4.3
2022-11-29T15:39:28.113Z,4.3
2022-11-29T15:40:38.225Z,4.3
2022-11-29T15:41:48.341Z,4.3
2022-11-29T15:42:58.459Z,4.3
2022-11-29T15:44:08.589Z,4.3
2022-11-29T15:45:18.709Z,4.3
2022-11-29T15:47:38.946Z,4.3
2022-11-29T15:48:48.062Z,4.2
2022-11-29T15:49:58.195Z,4.2
2022-11-29T15:51:08.304Z,4.3
2022-11-29T15:52:18.430Z,4.3
2022-11-29T15:53:28.543Z,4.2
2022-11-29T15:54:38.653Z,4.2
2022-11-29T15:55:48.786Z,4.2
2022-11-29T15:56:58.890Z,4.2
2022-11-29T15:58:09.015Z,4.2
2022-11-29T15:59:19.135Z,4.2
2022-11-29T16:00:29.245Z,4.2
2022-11-29T16:01:39.362Z,4.2
2022-11-29T16:02:49.483Z,4.2
2022-11-29T16:03:58.618Z,4.2
2022-11-29T16:05:08.736Z,4.1
2022-11-29T16:06:18.864Z,4.1
2022-11-29T16:07:28.974Z,4.2
2022-11-29T16:08:38.123Z,4.2
2022-11-29T16:09:48.230Z,4.2
2022-11-29T16:10:58.352Z,4.2
2022-11-29T16:12:08.478Z,4.2
2022-11-29T16:13:18.597Z,4.2
2022-11-29T16:14:28.705Z,4.2
2022-11-29T16:15:38.826Z,4.2
2022-11-29T16:16:48.951Z,4.2
2022-11-29T16:17:59.064Z,4.2
2022-11-29T16:19:09.188Z,4.2
2022-11-29T16:20:19.296Z,4.2
2022-11-29T16:21:29.413Z,4.2
2022-11-29T16:22:39.539Z,4.1
2022-11-29T16:23:48.660Z,4.1
2022-11-29T16:24:58.789Z,4.1
2022-11-29T16:26:08.912Z,4.2
2022-11-29T16:27:19.021Z,4.2
2022-11-29T16:28:29.132Z,4.2
2022-11-29T16:29:39.259Z,4.2
2022-11-29T16:30:49.375Z,4.2
2022-11-29T16:31:59.503Z,4.2
2022-11-29T16:33:09.608Z,4.2
2022-11-29T16:34:19.732Z,4.1
2022-11-29T16:35:29.850Z,4.2
2022-11-29T16:36:39.973Z,4.2
2022-11-29T16:37:50.080Z,4.2
2022-11-29T16:38:59.216Z,4.2
2022-11-29T16:40:09.340Z,4.2
2022-11-29T16:41:19.452Z,4.2
2022-11-29T16:42:29.579Z,4.2
2022-11-29T16:43:39.684Z,4.2
2022-11-29T16:44:49.803Z,4.2
2022-11-29T16:45:59.933Z,4.2
2022-11-29T16:47:10.035Z,4.2
2022-11-29T16:48:20.157Z,4.2
2022-11-29T16:49:30.282Z,4.2
2022-11-29T16:50:40.400Z,4.2